Time;durP1;ratioP1;P1;durP2;ratioP2;P2;SDS_P1;SDS_P2;PMS_P1;PMS_P2;Temp;Humidity;BMP_temperature;BMP_pressure;BME280_temperature;BME280_humidity;BME280_pressure;Samples;Min_cycle;Max_cycle;Signal;HPM_P1;HPM_P2
2023/08/30 00:02:17;;;;;;;8.03;5.27;;;;;;;-145.18;100.00;46668.22;5026764;28;20084;-60
2023/08/30 00:04:42;;;;;;;9.83;5.07;;;;;;;-145.18;100.00;46660.41;5032153;28;20084;-60
2023/08/30 00:07:08;;;;;;;10.63;5.13;;;;;;;-145.18;100.00;46662.34;5026118;28;20108;-60
2023/08/30 00:09:35;;;;;;;10.33;5.30;;;;;;;-145.18;100.00;46660.41;5030730;28;20477;-60
2023/08/30 00:12:01;;;;;;;9.57;5.87;;;;;;;-145.18;100.00;46660.41;5032176;28;20041;-60
2023/08/30 00:14:27;;;;;;;9.53;5.93;;;;;;;-145.18;100.00;46662.34;5033189;28;20044;-60
2023/08/30 00:16:52;;;;;;;11.73;5.57;;;;;;;-145.18;100.00;46660.41;5028544;28;20478;-60
2023/08/30 00:19:17;;;;;;;10.37;6.33;;;;;;;-145.18;100.00;46668.22;5030607;28;20045;-60
2023/08/30 00:21:44;;;;;;;8.57;5.63;;;;;;;-145.18;100.00;46664.31;5027855;28;20030;-60
2023/08/30 00:24:09;;;;;;;9.77;6.13;;;;;;;-145.18;100.00;46660.41;5030388;28;20041;-60
2023/08/30 00:26:35;;;;;;;9.07;5.93;;;;;;;-145.18;100.00;46656.50;5031615;28;20072;-60
2023/08/30 00:29:00;;;;;;;10.53;6.33;;;;;;;-145.18;100.00;46658.44;5029196;28;20029;-60
2023/08/30 00:31:26;;;;;;;10.63;6.23;;;;;;;-145.18;100.00;46662.34;5032161;28;20037;-60
2023/08/30 00:33:51;;;;;;;11.83;6.70;;;;;;;-145.18;100.00;46664.31;5032514;28;20038;-60
2023/08/30 00:36:18;;;;;;;11.90;6.53;;;;;;;-145.18;100.00;46666.25;5029571;28;20091;-60
2023/08/30 00:38:44;;;;;;;12.93;6.87;;;;;;;-145.18;100.00;46666.25;5028902;28;20030;-60
2023/08/30 00:41:09;;;;;;;11.73;6.67;;;;;;;-145.18;100.00;46666.25;5031617;28;20099;-60
2023/08/30 00:43:35;;;;;;;10.27;7.13;;;;;;;-145.18;100.00;46658.44;5030641;28;20025;-60
2023/08/30 00:46:00;;;;;;;13.43;7.33;;;;;;;-145.18;100.00;46662.34;5032332;28;20029;-60
2023/08/30 00:48:27;;;;;;;11.13;6.13;;;;;;;-145.18;100.00;46660.41;5031902;28;20052;-60
2023/08/30 00:50:52;;;;;;;12.43;6.93;;;;;;;-145.18;100.00;46654.53;5031879;28;20044;-60
2023/08/30 00:53:18;;;;;;;12.83;7.23;;;;;;;-145.18;100.00;46664.31;5028575;28;20037;-67
2023/08/30 00:55:43;;;;;;;10.53;6.57;;;;;;;-145.18;100.00;46662.34;5027878;28;20614;-67
2023/08/30 00:58:10;;;;;;;12.50;6.40;;;;;;;-145.18;100.00;46662.34;5030324;28;20069;-67
2023/08/30 01:00:35;;;;;;;14.27;8.00;;;;;;;-145.18;100.00;46668.22;5029366;28;20045;-67
2023/08/30 01:03:01;;;;;;;11.73;7.77;;;;;;;-145.18;100.00;46664.31;5028847;28;20048;-67
2023/08/30 01:05:28;;;;;;;12.00;8.23;;;;;;;-145.18;100.00;46662.34;5030373;28;20049;-67
2023/08/30 01:07:53;;;;;;;13.53;7.60;;;;;;;-145.18;100.00;46670.16;5029341;28;20037;-67
2023/08/30 01:10:26;;;;;;;15.37;7.50;;;;;;;-145.18;100.00;46660.41;5030211;28;20401;-67
2023/08/30 01:13:02;;;;;;;12.03;7.40;;;;;;;-145.18;100.00;46656.50;5029210;28;20037;-67
2023/08/30 01:15:28;;;;;;;10.60;7.80;;;;;;;-145.18;100.00;46668.22;5028978;28;20037;-67
2023/08/30 01:17:55;;;;;;;12.03;7.80;;;;;;;-145.18;100.00;46660.41;5029660;28;20037;-67
2023/08/30 01:20:23;;;;;;;12.87;7.70;;;;;;;-145.18;100.00;46664.31;5028687;28;20021;-67
2023/08/30 01:23:13;;;;;;;14.07;7.50;;;;;;;-145.18;100.00;46658.44;5031024;28;20029;-67
2023/08/30 01:26:04;;;;;;;13.90;8.20;;;;;;;-145.18;100.00;46658.44;5029010;28;20104;-67
2023/08/30 01:28:33;;;;;;;11.87;8.10;;;;;;;-145.18;100.00;46660.41;5021958;28;20080;-67
2023/08/30 01:31:00;;;;;;;13.37;7.87;;;;;;;-145.18;100.00;46660.41;5027476;28;20079;-67
2023/08/30 01:33:27;;;;;;;14.60;8.33;;;;;;;-145.18;100.00;46662.34;5029273;28;20064;-67
2023/08/30 01:35:59;;;;;;;14.40;8.70;;;;;;;-145.18;100.00;46664.31;5030191;28;20061;-67
2023/08/30 01:38:27;;;;;;;11.30;8.23;;;;;;;-145.18;100.00;46660.41;5029751;28;20034;-67
2023/08/30 01:40:56;;;;;;;14.37;8.33;;;;;;;-145.18;100.00;46660.41;5030084;28;20366;-67
2023/08/30 01:43:21;;;;;;;12.70;8.50;;;;;;;-145.18;100.00;46662.34;5029181;28;20033;-67
2023/08/30 01:45:47;;;;;;;15.53;8.50;;;;;;;-145.18;100.00;46658.44;5029661;28;20056;-67
2023/08/30 01:48:16;;;;;;;14.80;8.53;;;;;;;-145.18;100.00;46664.31;5028623;28;20037;-67
2023/08/30 01:50:43;;;;;;;13.03;8.63;;;;;;;-145.18;100.00;46664.31;5030188;28;20033;-67
2023/08/30 01:53:11;;;;;;;15.30;9.10;;;;;;;-145.18;100.00;46660.41;5027730;28;20040;-67
2023/08/30 01:55:37;;;;;;;13.10;8.83;;;;;;;-145.18;100.00;46658.44;5029606;28;20034;-67
2023/08/30 01:58:03;;;;;;;15.60;9.47;;;;;;;-145.18;100.00;46648.69;5026128;28;20037;-67
2023/08/30 02:00:29;;;;;;;14.23;9.17;;;;;;;-145.18;100.00;46658.44;5028925;28;20033;-67
2023/08/30 02:02:54;;;;;;;13.47;8.50;;;;;;;-145.18;100.00;46656.50;5028593;28;20030;-60
2023/08/30 02:05:20;;;;;;;14.40;8.63;;;;;;;-145.18;100.00;46656.50;5028575;28;20053;-60
2023/08/30 02:08:05;;;;;;;16.90;9.93;;;;;;;-145.18;100.00;46658.44;5027422;28;20549;-60
2023/08/30 02:10:43;;;;;;;12.68;8.55;;;;;;;-145.18;100.00;46660.41;5029387;28;20555;-60
2023/08/30 02:13:11;;;;;;;15.00;8.37;;;;;;;-145.18;100.00;46658.44;5028526;28;20048;-60
2023/08/30 02:15:40;;;;;;;14.27;8.07;;;;;;;-145.18;100.00;46656.50;5028371;28;20037;-60
2023/08/30 02:18:06;;;;;;;14.97;8.67;;;;;;;-145.18;100.00;46660.41;5030443;28;20104;-60
2023/08/30 02:20:32;;;;;;;14.77;8.40;;;;;;;-145.18;100.00;46658.44;5033275;28;20576;-60
2023/08/30 02:23:00;;;;;;;12.97;8.00;;;;;;;-145.18;100.00;46662.34;5034556;28;20029;-60
2023/08/30 02:25:25;;;;;;;14.17;8.37;;;;;;;-145.18;100.00;46660.41;5033909;28;20048;-60
2023/08/30 02:27:51;;;;;;;13.70;8.20;;;;;;;-145.18;100.00;46660.41;5034936;28;20099;-60
2023/08/30 02:30:17;;;;;;;16.43;8.73;;;;;;;-145.18;100.00;46660.41;5032932;28;20033;-60
2023/08/30 02:32:42;;;;;;;14.50;7.90;;;;;;;-145.18;100.00;46660.41;5034508;28;20538;-60
2023/08/30 02:35:08;;;;;;;13.50;8.67;;;;;;;-145.18;100.00;46664.31;5031470;28;20041;-60
2023/08/30 02:37:33;;;;;;;14.37;7.67;;;;;;;-145.18;100.00;46662.34;5034428;28;20041;-60
2023/08/30 02:39:59;;;;;;;14.77;8.93;;;;;;;-145.18;100.00;46660.41;5033032;28;20484;-60
2023/08/30 02:42:25;;;;;;;13.30;8.50;;;;;;;-145.18;100.00;46660.41;5032671;28;20069;-60
2023/08/30 02:44:51;;;;;;;16.77;8.40;;;;;;;-145.18;100.00;46660.41;5030875;28;20029;-60
2023/08/30 02:47:16;;;;;;;14.17;8.50;;;;;;;-145.18;100.00;46660.41;5030710;28;20101;-60
2023/08/30 02:49:42;;;;;;;17.53;8.90;;;;;;;-145.18;100.00;46654.53;5033522;28;20037;-60
2023/08/30 02:52:08;;;;;;;14.87;8.57;;;;;;;-145.18;100.00;46660.41;5029993;28;20047;-60
2023/08/30 02:54:33;;;;;;;15.83;8.83;;;;;;;-145.18;100.00;46658.44;5033503;28;20037;-60
2023/08/30 02:56:59;;;;;;;13.80;8.10;;;;;;;-145.18;100.00;46656.50;5032594;28;20065;-60
2023/08/30 02:59:25;;;;;;;14.13;8.40;;;;;;;-145.18;100.00;46658.44;5034030;28;20037;-60
2023/08/30 03:01:50;;;;;;;13.70;7.90;;;;;;;-145.18;100.00;46662.34;5033690;28;20091;-60
2023/08/30 03:04:15;;;;;;;16.33;9.23;;;;;;;-145.18;100.00;46658.44;5033581;28;20433;-60
2023/08/30 03:06:41;;;;;;;15.50;8.70;;;;;;;-145.18;100.00;46658.44;5032060;28;20041;-60
2023/08/30 03:09:07;;;;;;;15.20;8.70;;;;;;;-145.18;100.00;46664.31;5029808;28;20065;-60
2023/08/30 03:11:33;;;;;;;16.40;8.73;;;;;;;-145.18;100.00;46662.34;5033847;28;20041;-60
2023/08/30 03:13:59;;;;;;;15.57;8.47;;;;;;;-145.18;100.00;46658.44;5032483;28;20041;-60
2023/08/30 03:16:25;;;;;;;15.63;9.00;;;;;;;-145.18;100.00;46654.53;5033504;28;20041;-60
2023/08/30 03:18:50;;;;;;;14.00;8.13;;;;;;;-145.18;100.00;46656.50;5031726;28;20083;-60
2023/08/30 03:21:16;;;;;;;15.23;8.20;;;;;;;-145.18;100.00;46650.63;5032801;28;20048;-60
2023/08/30 03:23:42;;;;;;;13.57;8.27;;;;;;;-145.18;100.00;46652.59;5031602;28;20506;-60
2023/08/30 03:26:11;;;;;;;13.80;8.33;;;;;;;-145.18;100.00;46656.50;5031711;28;20021;-60
2023/08/30 03:28:37;;;;;;;14.30;8.00;;;;;;;-145.18;100.00;46658.44;5026654;28;20038;-60
2023/08/30 03:31:20;;;;;;;13.67;7.97;;;;;;;-145.18;100.00;46658.44;5032247;28;20120;-60
2023/08/30 03:33:47;;;;;;;14.97;8.70;;;;;;;-145.18;100.00;46660.41;5030935;28;20083;-60
2023/08/30 03:36:14;;;;;;;14.50;8.53;;;;;;;-145.18;100.00;46654.53;5031481;28;20037;-60
2023/08/30 03:38:40;;;;;;;16.50;7.93;;;;;;;-145.18;100.00;46656.50;5030361;28;20563;-60
2023/08/30 03:41:06;;;;;;;11.77;7.63;;;;;;;-145.18;100.00;46650.63;5033274;28;20029;-60
2023/08/30 03:43:32;;;;;;;14.17;8.53;;;;;;;-145.18;100.00;46656.50;5029932;28;20037;-61
2023/08/30 03:45:59;;;;;;;16.17;7.97;;;;;;;-145.18;100.00;46656.50;5033135;28;20436;-60
2023/08/30 03:48:24;;;;;;;14.77;7.53;;;;;;;-145.18;100.00;46656.50;5032425;28;20061;-60
2023/08/30 03:50:49;;;;;;;14.57;8.23;;;;;;;-145.18;100.00;46656.50;5031032;28;20064;-60
2023/08/30 03:53:15;;;;;;;14.27;8.33;;;;;;;-145.18;100.00;46654.53;5032105;28;20486;-60
2023/08/30 03:55:41;;;;;;;13.40;8.50;;;;;;;-145.18;100.00;46658.44;5031419;28;20033;-60
2023/08/30 03:58:07;;;;;;;14.47;8.47;;;;;;;-145.18;100.00;46658.44;5032358;28;20044;-60
2023/08/30 04:00:35;;;;;;;14.93;8.30;;;;;;;-145.18;100.00;46652.59;5032462;28;20037;-60
2023/08/30 04:03:00;;;;;;;14.13;8.67;;;;;;;-145.18;100.00;46652.59;5032987;28;20037;-60
2023/08/30 04:05:26;;;;;;;13.10;8.63;;;;;;;-145.18;100.00;46656.50;5032206;28;20061;-60
2023/08/30 04:07:51;;;;;;;13.97;9.13;;;;;;;-145.18;100.00;46654.53;5031272;28;20128;-60
2023/08/30 04:10:17;;;;;;;17.27;9.47;;;;;;;-145.18;100.00;46650.63;5032780;28;20030;-60
2023/08/30 04:12:42;;;;;;;15.20;8.60;;;;;;;-145.18;100.00;46652.59;5032875;28;20435;-60
2023/08/30 04:15:08;;;;;;;18.00;9.13;;;;;;;-145.18;100.00;46652.59;5031727;28;20025;-60
2023/08/30 04:17:34;;;;;;;13.30;8.67;;;;;;;-145.18;100.00;46650.63;5032022;28;20032;-61
2023/08/30 04:19:59;;;;;;;13.57;8.63;;;;;;;-145.18;100.00;46652.59;5029208;28;20025;-60
2023/08/30 04:22:24;;;;;;;18.63;9.47;;;;;;;-145.18;100.00;46656.50;5031724;28;20895;-60
2023/08/30 04:24:50;;;;;;;14.30;9.30;;;;;;;-145.18;100.00;46652.59;5031693;28;20103;-61
2023/08/30 04:27:15;;;;;;;16.70;8.30;;;;;;;-145.18;100.00;46648.69;5032338;28;20469;-60
2023/08/30 04:29:44;;;;;;;24.80;9.47;;;;;;;-145.18;100.00;46646.72;5031220;28;20120;-61
2023/08/30 04:32:10;;;;;;;14.73;9.80;;;;;;;-145.18;100.00;46654.53;5031980;28;20029;-60
2023/08/30 04:34:35;;;;;;;17.33;9.33;;;;;;;-145.18;100.00;46648.69;5029035;28;20095;-60
2023/08/30 04:37:00;;;;;;;18.00;9.70;;;;;;;-145.18;100.00;46650.63;5030952;28;20030;-60
2023/08/30 04:39:26;;;;;;;17.93;9.80;;;;;;;-145.18;100.00;46650.63;5025854;28;20549;-60
2023/08/30 04:41:52;;;;;;;16.70;9.07;;;;;;;-145.18;100.00;46648.69;5025642;28;20495;-60
2023/08/30 04:44:19;;;;;;;20.17;9.67;;;;;;;-145.18;100.00;46646.72;5030934;28;20034;-60
2023/08/30 04:46:44;;;;;;;17.63;10.10;;;;;;;-145.18;100.00;46648.69;5032014;28;20048;-60
2023/08/30 04:49:09;;;;;;;16.63;10.10;;;;;;;-145.18;100.00;46646.72;5029299;28;20508;-60
2023/08/30 04:51:35;;;;;;;20.17;9.40;;;;;;;-145.18;100.00;46646.72;5030298;28;20040;-60
2023/08/30 04:54:00;;;;;;;13.97;8.90;;;;;;;-145.18;100.00;46644.78;5029299;28;20033;-60
2023/08/30 04:56:26;;;;;;;17.03;9.90;;;;;;;-145.18;100.00;46644.78;5032796;28;20037;-60
2023/08/30 04:58:51;;;;;;;16.73;9.47;;;;;;;-145.18;100.00;46642.81;5029349;28;20034;-60
2023/08/30 05:01:16;;;;;;;15.80;9.37;;;;;;;-145.18;100.00;46644.78;5020230;28;20120;-60
2023/08/30 05:03:42;;;;;;;20.60;10.30;;;;;;;-145.18;100.00;46644.78;5031266;28;20132;-61
2023/08/30 05:06:08;;;;;;;16.30;8.87;;;;;;;-145.18;100.00;46644.78;5031373;28;20040;-60
2023/08/30 05:08:33;;;;;;;17.77;9.57;;;;;;;-145.18;100.00;46640.88;5029350;28;20575;-60
2023/08/30 05:10:58;;;;;;;18.97;9.97;;;;;;;-145.18;100.00;46642.81;5029106;28;20031;-61
2023/08/30 05:13:24;;;;;;;17.30;9.27;;;;;;;-145.18;100.00;46638.91;5024503;28;20034;-60
2023/08/30 05:15:49;;;;;;;17.77;10.13;;;;;;;-145.18;100.00;46640.88;5029345;28;20112;-60
2023/08/30 05:18:15;;;;;;;17.53;9.37;;;;;;;-145.18;100.00;46646.72;5026947;28;20089;-60
2023/08/30 05:20:40;;;;;;;15.17;9.20;;;;;;;-145.18;100.00;46644.78;5028490;28;20422;-60
2023/08/30 05:23:05;;;;;;;18.50;9.50;;;;;;;-145.18;100.00;46642.81;5024167;28;20481;-61
2023/08/30 05:25:31;;;;;;;12.77;8.37;;;;;;;-145.18;100.00;46640.88;5029865;28;20033;-61
2023/08/30 05:27:56;;;;;;;14.77;9.10;;;;;;;-145.18;100.00;46640.88;5027830;28;20490;-60
2023/08/30 05:30:21;;;;;;;15.03;9.87;;;;;;;-145.18;100.00;46644.78;5024402;28;20044;-60
2023/08/30 05:32:47;;;;;;;16.03;8.83;;;;;;;-145.18;100.00;46640.88;5028353;28;20478;-60
2023/08/30 05:35:12;;;;;;;12.70;8.40;;;;;;;-145.18;100.00;46640.88;5029500;28;20053;-60
2023/08/30 05:37:37;;;;;;;18.07;8.77;;;;;;;-145.18;100.00;46640.88;5025429;28;20464;-60
2023/08/30 05:40:03;;;;;;;17.17;8.90;;;;;;;-145.18;100.00;46644.78;5023896;28;20065;-60
2023/08/30 05:42:29;;;;;;;16.10;9.10;;;;;;;-145.18;100.00;46642.81;5020370;28;20028;-61
2023/08/30 05:44:54;;;;;;;13.87;9.07;;;;;;;-145.18;100.00;46636.94;5016017;28;20030;-61
2023/08/30 05:47:21;;;;;;;16.07;9.07;;;;;;;-145.18;100.00;46640.88;5015873;28;20446;-61
2023/08/30 05:49:46;;;;;;;15.40;8.97;;;;;;;-145.18;100.00;46642.81;5031446;28;20017;-61
2023/08/30 05:52:11;;;;;;;25.33;10.47;;;;;;;-145.18;100.00;46642.81;5031577;28;20040;-61
2023/08/30 05:54:37;;;;;;;20.63;10.97;;;;;;;-145.18;100.00;46636.94;5030535;28;20478;-62
2023/08/30 05:57:03;;;;;;;17.97;10.73;;;;;;;-145.18;100.00;46642.81;5030438;28;20059;-62
2023/08/30 05:59:28;;;;;;;15.57;10.03;;;;;;;-145.18;100.00;46638.91;5031401;28;20025;-62
2023/08/30 06:01:54;;;;;;;13.40;8.90;;;;;;;-145.18;100.00;46644.78;5026935;28;20037;-61
2023/08/30 06:04:19;;;;;;;15.93;9.43;;;;;;;-145.18;100.00;46636.94;5030169;28;20042;-62
2023/08/30 06:06:45;;;;;;;17.23;9.10;;;;;;;-145.18;100.00;46635.00;5029328;28;20030;-61
2023/08/30 06:09:12;;;;;;;15.77;8.37;;;;;;;-145.18;100.00;46636.94;5028477;28;20477;-61
2023/08/30 06:11:38;;;;;;;14.13;9.00;;;;;;;-145.18;100.00;46640.88;5014850;28;20032;-63
2023/08/30 06:14:04;;;;;;;15.83;9.23;;;;;;;-145.18;100.00;46636.94;5025377;28;20029;-62
2023/08/30 06:16:30;;;;;;;15.13;8.90;;;;;;;-145.18;100.00;46633.06;5024889;28;20071;-61
2023/08/30 06:18:55;;;;;;;16.00;8.50;;;;;;;-145.18;100.00;46631.09;5016219;28;20413;-61
2023/08/30 06:21:20;;;;;;;13.60;8.37;;;;;;;-145.18;100.00;46636.94;5022177;28;20067;-61
2023/08/30 06:23:46;;;;;;;14.17;8.67;;;;;;;-145.18;100.00;46631.09;5021221;28;20038;-62
2023/08/30 06:26:11;;;;;;;15.47;8.63;;;;;;;-145.18;100.00;46633.06;5017524;28;20022;-61
2023/08/30 06:28:36;;;;;;;14.70;8.63;;;;;;;-145.18;100.00;46660.41;5025140;28;20061;-61
2023/08/30 06:31:02;;;;;;;14.00;8.20;;;;;;;-145.18;100.00;46633.06;5019020;28;20099;-61
2023/08/30 06:33:27;;;;;;;18.07;10.10;;;;;;;-145.18;100.00;46636.94;5014799;28;20037;-61
2023/08/30 06:35:53;;;;;;;20.77;9.80;;;;;;;-145.18;100.00;46660.41;5026787;28;20469;-61
2023/08/30 06:38:19;;;;;;;14.87;9.10;;;;;;;-145.18;100.00;46633.06;5018092;28;20033;-61
2023/08/30 06:40:49;;;;;;;14.57;9.10;;;;;;;-145.18;100.00;46660.41;5030467;28;20647;-61
2023/08/30 06:43:14;;;;;;;16.27;8.97;;;;;;;-145.18;100.00;46660.41;5028764;28;20025;-72
2023/08/30 06:45:43;;;;;;;14.73;9.30;;;;;;;-145.18;100.00;46660.41;5024427;28;20041;-72
2023/08/30 06:48:09;;;;;;;18.73;9.47;;;;;;;-145.18;100.00;46660.41;5029668;28;20075;-71
2023/08/30 06:50:34;;;;;;;17.50;9.23;;;;;;;-145.18;100.00;46660.41;5030074;28;20025;-72
2023/08/30 06:53:01;;;;;;;15.63;9.00;;;;;;;-145.18;100.00;46660.41;5027296;28;20083;-72
2023/08/30 06:55:26;;;;;;;13.50;8.30;;;;;;;-145.18;100.00;46660.41;5022798;28;20301;-72
2023/08/30 06:57:52;;;;;;;13.50;8.10;;;;;;;-145.18;100.00;46660.41;5023922;28;20080;-72
2023/08/30 07:00:17;;;;;;;17.20;7.93;;;;;;;-145.18;100.00;46660.41;5028978;28;20069;-71
2023/08/30 07:02:45;;;;;;;13.33;8.47;;;;;;;-145.18;100.00;46660.41;5029590;28;20029;-72
2023/08/30 07:05:11;;;;;;;13.30;7.47;;;;;;;-145.18;100.00;46660.41;5027827;28;20041;-72
2023/08/30 07:07:37;;;;;;;12.97;7.80;;;;;;;-145.18;100.00;46660.41;5033825;28;20033;-71
2023/08/30 07:10:03;;;;;;;15.43;8.67;;;;;;;-145.18;100.00;46658.44;5032216;28;20061;-72
2023/08/30 07:12:28;;;;;;;15.63;8.50;;;;;;;-145.18;100.00;46656.50;5032941;28;20078;-72
2023/08/30 07:14:54;;;;;;;13.73;7.63;;;;;;;-145.18;100.00;46658.44;5032612;28;20022;-72
2023/08/30 07:17:20;;;;;;;15.10;7.87;;;;;;;-145.18;100.00;46660.41;5033995;28;20037;-72
2023/08/30 07:19:45;;;;;;;16.90;8.43;;;;;;;-145.18;100.00;46658.44;5029777;28;20037;-71
2023/08/30 07:22:10;;;;;;;16.77;7.93;;;;;;;-145.18;100.00;46652.59;5033466;28;20033;-72
2023/08/30 07:24:36;;;;;;;16.20;8.07;;;;;;;-145.18;100.00;46652.59;5028455;28;20255;-72
2023/08/30 07:27:02;;;;;;;15.43;7.67;;;;;;;-145.18;100.00;46658.44;5027777;28;20026;-73
2023/08/30 07:29:28;;;;;;;13.10;7.40;;;;;;;-145.18;100.00;46656.50;5028560;28;20036;-72
2023/08/30 07:31:54;;;;;;;12.67;7.67;;;;;;;-145.18;100.00;46656.50;5030276;28;20104;-72
2023/08/30 07:34:20;;;;;;;17.40;8.37;;;;;;;-145.18;100.00;46656.50;5031502;28;20039;-72
2023/08/30 07:36:45;;;;;;;14.17;7.60;;;;;;;-145.18;100.00;46652.59;5023229;28;20485;-71
2023/08/30 07:39:11;;;;;;;13.93;7.57;;;;;;;-145.18;100.00;46654.53;5022506;28;20033;-71
2023/08/30 07:41:36;;;;;;;13.40;7.27;;;;;;;-145.18;100.00;46650.63;5031737;28;20452;-71
2023/08/30 07:44:02;;;;;;;13.73;7.93;;;;;;;-145.18;100.00;46650.63;5030257;28;20374;-71
2023/08/30 07:46:28;;;;;;;13.03;7.80;;;;;;;-145.18;100.00;46613.50;5032995;28;20022;-71
2023/08/30 07:48:54;;;;;;;10.80;7.17;;;;;;;-145.18;100.00;46652.59;5021830;28;20030;-71
2023/08/30 07:51:19;;;;;;;14.63;7.27;;;;;;;-145.18;100.00;46652.59;5030475;28;20049;-71
2023/08/30 07:53:44;;;;;;;14.50;8.03;;;;;;;-145.18;100.00;46650.63;5028925;28;20034;-61
2023/08/30 07:56:10;;;;;;;12.83;7.13;;;;;;;-145.18;100.00;46640.88;5022032;28;20482;-60
2023/08/30 07:58:35;;;;;;;12.17;7.00;;;;;;;-145.18;100.00;46640.88;5030629;28;20057;-60
2023/08/30 08:01:00;;;;;;;12.57;7.00;;;;;;;-145.18;100.00;46609.59;5033079;28;20032;-60
2023/08/30 08:03:26;;;;;;;12.10;7.80;;;;;;;-145.18;100.00;46640.88;5032786;28;20429;-61
2023/08/30 08:05:51;;;;;;;11.03;7.27;;;;;;;-145.18;100.00;46607.66;5032938;28;20106;-60
2023/08/30 08:08:18;;;;;;;11.40;7.87;;;;;;;-145.18;100.00;46640.88;5001424;28;20038;-60
2023/08/30 08:10:43;;;;;;;11.73;7.23;;;;;;;-145.18;100.00;46638.91;5032586;28;20032;-60
2023/08/30 08:13:09;;;;;;;11.40;7.33;;;;;;;-145.18;100.00;46597.88;5031130;28;20129;-60
2023/08/30 08:15:34;;;;;;;12.13;6.93;;;;;;;-145.18;100.00;46607.66;5034026;28;20037;-60
2023/08/30 08:18:01;;;;;;;10.47;6.40;;;;;;;-145.18;100.00;46597.88;5030038;28;20076;-60
2023/08/30 08:20:28;;;;;;;13.30;5.93;;;;;;;-145.18;100.00;46597.88;5031717;28;20048;-60
2023/08/30 08:22:53;;;;;;;11.23;6.77;;;;;;;-145.18;100.00;46601.78;5029814;28;20067;-60
2023/08/30 08:25:20;;;;;;;10.20;6.00;;;;;;;-145.18;100.00;46603.75;5028020;28;20057;-60
2023/08/30 08:27:46;;;;;;;10.30;5.87;;;;;;;-145.18;100.00;46601.78;5032185;28;20057;-60
2023/08/30 08:30:12;;;;;;;11.13;6.63;;;;;;;-145.18;100.00;46599.84;5032279;28;20543;-60
2023/08/30 08:32:37;;;;;;;16.97;7.23;;;;;;;-145.18;100.00;46595.94;5021369;28;20132;-60
2023/08/30 08:35:03;;;;;;;17.53;7.93;;;;;;;-145.18;100.00;46599.84;5024824;28;20025;-60
2023/08/30 08:37:28;;;;;;;13.50;8.13;;;;;;;-145.18;100.00;46597.88;5030950;28;20045;-60
2023/08/30 08:39:54;;;;;;;15.43;8.10;;;;;;;-145.18;100.00;46595.94;5006699;28;20036;-60
2023/08/30 08:42:20;;;;;;;19.07;10.80;;;;;;;-145.18;100.00;46597.88;5028322;28;20029;-60
2023/08/30 08:44:54;;;;;;;17.03;10.57;;;;;;;-145.18;100.00;46593.97;5032276;28;20032;-60
2023/08/30 08:47:21;;;;;;;14.60;9.80;;;;;;;-145.18;100.00;46595.94;5029989;28;20075;-60
2023/08/30 08:49:50;;;;;;;16.93;11.47;;;;;;;-145.18;100.00;46593.97;5030266;28;20035;-60
2023/08/30 08:52:16;;;;;;;18.57;12.13;;;;;;;-145.18;100.00;46595.94;5031255;28;20025;-63
2023/08/30 08:54:43;;;;;;;20.47;11.73;;;;;;;-145.18;100.00;46597.88;5029784;28;20025;-60
2023/08/30 08:57:09;;;;;;;19.00;13.00;;;;;;;-145.18;100.00;46599.84;5029163;28;20028;-60
2023/08/30 08:59:34;;;;;;;19.27;13.67;;;;;;;-145.18;100.00;46599.84;5028968;28;20030;-60
2023/08/30 09:02:00;;;;;;;20.47;13.90;;;;;;;-145.18;100.00;46599.84;5023458;28;20069;-69
2023/08/30 09:04:27;;;;;;;20.83;14.70;;;;;;;-145.18;100.00;46601.78;5027287;28;20056;-69
2023/08/30 09:06:53;;;;;;;20.73;15.07;;;;;;;-145.18;100.00;46597.88;5032082;28;20053;-69
2023/08/30 09:09:19;;;;;;;22.93;15.60;;;;;;;-145.18;100.00;46599.84;5031012;28;20594;-69
2023/08/30 09:11:45;;;;;;;19.77;15.10;;;;;;;-145.18;100.00;46607.66;5034467;28;20040;-70
2023/08/30 09:14:10;;;;;;;19.27;14.00;;;;;;;-145.18;100.00;46601.78;5031671;28;20033;-69
2023/08/30 09:16:35;;;;;;;24.67;14.60;;;;;;;-145.18;100.00;46607.66;5016461;28;20474;-69
2023/08/30 09:19:03;;;;;;;18.67;14.30;;;;;;;-145.18;100.00;46611.56;5031370;28;20047;-69
2023/08/30 09:21:29;;;;;;;20.30;13.63;;;;;;;-145.18;100.00;46611.56;5030513;28;20037;-69
2023/08/30 09:24:02;;;;;;;16.93;13.13;;;;;;;-145.18;100.00;46621.31;5030841;28;20037;-69
2023/08/30 09:26:28;;;;;;;20.07;12.43;;;;;;;-145.18;100.00;46617.41;5029821;28;20025;-69
2023/08/30 09:28:55;;;;;;;15.30;11.17;;;;;;;-145.18;100.00;46625.22;5029785;28;20112;-69
2023/08/30 09:31:21;;;;;;;14.00;9.67;;;;;;;-145.18;100.00;46627.19;5029494;28;20433;-69
2023/08/30 09:33:49;;;;;;;12.37;9.30;;;;;;;-145.18;100.00;46633.06;5030686;28;20120;-70
2023/08/30 09:36:15;;;;;;;11.37;8.63;;;;;;;-145.18;100.00;46635.00;5030442;28;20059;-70
2023/08/30 09:38:40;;;;;;;8.77;7.30;;;;;;;-145.18;100.00;46642.81;5026294;28;20493;-69
2023/08/30 09:41:06;;;;;;;12.17;6.57;;;;;;;-145.18;100.00;46636.94;5024264;28;20430;-70
2023/08/30 09:43:34;;;;;;;6.00;4.80;;;;;;;-145.18;100.00;46642.81;5020160;28;20553;-70
2023/08/30 09:46:04;;;;;;;5.27;3.60;;;;;;;-145.18;100.00;46648.69;5020714;28;20026;-69
2023/08/30 09:48:31;;;;;;;4.67;3.30;;;;;;;-145.18;100.00;46648.69;5020611;28;20041;-69
2023/08/30 09:50:59;;;;;;;4.63;3.73;;;;;;;-145.18;100.00;46656.50;5022616;28;20116;-69
2023/08/30 09:53:28;;;;;;;8.90;3.70;;;;;;;-145.18;100.00;46658.44;5025865;28;20040;-69
2023/08/30 09:55:55;;;;;;;6.27;3.23;;;;;;;-145.18;100.00;46664.31;5020597;28;20034;-69
2023/08/30 09:58:23;;;;;;;6.57;4.10;;;;;;;-145.18;100.00;46660.41;5027674;28;20033;-69
2023/08/30 10:00:49;;;;;;;7.07;3.43;;;;;;;-145.18;100.00;46654.53;5026987;28;20033;-69
2023/08/30 10:03:18;;;;;;;5.80;3.60;;;;;;;-145.18;100.00;46662.34;5041859;28;20025;-69
2023/08/30 10:05:45;;;;;;;5.47;3.30;;;;;;;-145.18;100.00;46656.50;5023525;28;20057;-69
2023/08/30 10:08:11;;;;;;;9.27;3.10;;;;;;;-145.18;100.00;46658.44;5013044;28;20021;-69
2023/08/30 10:10:37;;;;;;;6.00;3.57;;;;;;;-145.18;100.00;46660.41;5024879;28;20087;-69
2023/08/30 10:13:04;;;;;;;5.97;3.23;;;;;;;-145.18;100.00;46652.59;5023287;28;20029;-69
2023/08/30 10:15:33;;;;;;;5.50;4.03;;;;;;;-145.18;100.00;46656.50;5022768;28;20033;-69
2023/08/30 10:18:00;;;;;;;6.73;3.90;;;;;;;-145.18;100.00;46654.53;5013351;28;20363;-69
2023/08/30 10:20:27;;;;;;;8.50;3.53;;;;;;;-145.18;100.00;46652.59;5024925;28;20029;-69
2023/08/30 10:22:55;;;;;;;9.00;4.73;;;;;;;-145.18;100.00;46648.69;5030716;28;20056;-70
2023/08/30 10:25:24;;;;;;;7.30;3.67;;;;;;;-145.18;100.00;46652.59;5021211;28;20037;-69
2023/08/30 10:27:50;;;;;;;6.33;3.77;;;;;;;-145.18;100.00;46662.34;5023076;28;20071;-69
2023/08/30 10:30:19;;;;;;;10.50;2.97;;;;;;;-145.18;100.00;46660.41;5027615;28;20033;-69
2023/08/30 10:32:45;;;;;;;8.23;3.57;;;;;;;-145.18;100.00;46664.31;5025056;28;20503;-70
2023/08/30 10:35:13;;;;;;;7.23;3.83;;;;;;;-145.18;100.00;46668.22;5026430;28;20036;-69
2023/08/30 10:37:38;;;;;;;8.07;3.50;;;;;;;-145.18;100.00;46660.41;5024570;28;20137;-69
2023/08/30 10:40:05;;;;;;;7.80;3.40;;;;;;;-145.18;100.00;46670.16;5028511;28;20497;-69
2023/08/30 10:42:32;;;;;;;6.93;3.03;;;;;;;-145.18;100.00;46668.22;5026325;28;20560;-69
2023/08/30 10:44:59;;;;;;;11.53;3.30;;;;;;;-145.18;100.00;46670.16;5022530;28;20037;-69
2023/08/30 10:47:26;;;;;;;9.80;3.37;;;;;;;-145.18;100.00;46672.13;5031756;28;20036;-69
2023/08/30 10:50:00;;;;;;;6.33;3.10;;;;;;;-145.18;100.00;46672.13;5031986;28;20032;-70
2023/08/30 10:52:27;;;;;;;10.90;3.67;;;;;;;-145.18;100.00;46672.13;5030629;28;20030;-69
2023/08/30 10:55:03;;;;;;;6.60;3.17;;;;;;;-145.18;100.00;46670.16;5026060;28;20018;-71
2023/08/30 10:57:29;;;;;;;8.57;3.77;;;;;;;-145.18;100.00;46654.53;5032690;28;20029;-72
2023/08/30 11:00:08;;;;;;;11.00;3.20;;;;;;;-145.18;100.00;46662.34;5031382;28;20022;-72